sensor_id;sensor_type;location;lat;lon;timestamp;P1;durP1;ratioP1;P2;durP2;ratioP2
52948;SDS011;38812;50.942;3.644;2022-09-29T00:02:20;16.52;;;5.60;;
52948;SDS011;38812;50.942;3.644;2022-09-29T00:04:45;16.92;;;6.25;;
52948;SDS011;38812;50.942;3.644;2022-09-29T00:07:10;11.98;;;6.13;;
52948;SDS011;38812;50.942;3.644;2022-09-29T00:09:36;15.35;;;5.85;;
52948;SDS011;38812;50.942;3.644;2022-09-29T00:12:02;20.85;;;6.65;;
52948;SDS011;38812;50.942;3.644;2022-09-29T00:14:27;14.80;;;5.97;;
52948;SDS011;38812;50.942;3.644;2022-09-29T00:16:53;14.27;;;6.05;;
52948;SDS011;38812;50.942;3.644;2022-09-29T00:19:18;11.50;;;6.15;;
52948;SDS011;38812;50.942;3.644;2022-09-29T00:21:44;11.45;;;5.97;;
52948;SDS011;38812;50.942;3.644;2022-09-29T00:24:09;14.00;;;6.10;;
52948;SDS011;38812;50.942;3.644;2022-09-29T00:26:35;13.05;;;6.57;;
52948;SDS011;38812;50.942;3.644;2022-09-29T00:29:00;13.85;;;6.47;;
52948;SDS011;38812;50.942;3.644;2022-09-29T00:31:29;14.25;;;6.57;;
52948;SDS011;38812;50.942;3.644;2022-09-29T00:33:57;12.27;;;6.20;;
52948;SDS011;38812;50.942;3.644;2022-09-29T00:36:23;13.63;;;6.18;;
52948;SDS011;38812;50.942;3.644;2022-09-29T00:38:49;12.05;;;5.65;;
52948;SDS011;38812;50.942;3.644;2022-09-29T00:41:21;13.07;;;6.13;;
52948;SDS011;38812;50.942;3.644;2022-09-29T00:44:04;8.82;;;5.68;;
52948;SDS011;38812;50.942;3.644;2022-09-29T00:46:58;10.50;;;5.70;;
52948;SDS011;38812;50.942;3.644;2022-09-29T00:52:04;10.68;;;5.75;;
52948;SDS011;38812;50.942;3.644;2022-09-29T00:54:35;10.48;;;5.95;;
52948;SDS011;38812;50.942;3.644;2022-09-29T00:59:34;11.38;;;5.90;;
52948;SDS011;38812;50.942;3.644;2022-09-29T01:02:06;12.60;;;5.50;;
52948;SDS011;38812;50.942;3.644;2022-09-29T01:04:32;12.88;;;5.88;;
52948;SDS011;38812;50.942;3.644;2022-09-29T01:06:58;12.02;;;6.65;;
52948;SDS011;38812;50.942;3.644;2022-09-29T01:09:25;15.13;;;5.80;;
52948;SDS011;38812;50.942;3.644;2022-09-29T01:11:54;14.40;;;6.82;;
52948;SDS011;38812;50.942;3.644;2022-09-29T01:14:22;13.05;;;6.30;;
52948;SDS011;38812;50.942;3.644;2022-09-29T01:16:48;15.48;;;6.75;;
52948;SDS011;38812;50.942;3.644;2022-09-29T01:19:18;11.73;;;5.65;;
52948;SDS011;38812;50.942;3.644;2022-09-29T01:27:42;14.30;;;5.90;;
52948;SDS011;38812;50.942;3.644;2022-09-29T01:30:40;10.18;;;6.43;;
52948;SDS011;38812;50.942;3.644;2022-09-29T01:33:10;13.15;;;6.75;;
52948;SDS011;38812;50.942;3.644;2022-09-29T01:43:27;12.02;;;5.80;;
52948;SDS011;38812;50.942;3.644;2022-09-29T01:46:23;9.90;;;5.85;;
52948;SDS011;38812;50.942;3.644;2022-09-29T01:48:54;11.43;;;5.68;;
52948;SDS011;38812;50.942;3.644;2022-09-29T01:51:29;11.93;;;5.90;;
52948;SDS011;38812;50.942;3.644;2022-09-29T01:54:03;12.20;;;5.18;;
52948;SDS011;38812;50.942;3.644;2022-09-29T01:56:37;12.00;;;5.72;;
52948;SDS011;38812;50.942;3.644;2022-09-29T01:59:23;13.55;;;5.00;;
52948;SDS011;38812;50.942;3.644;2022-09-29T02:01:56;8.30;;;5.32;;
52948;SDS011;38812;50.942;3.644;2022-09-29T02:04:27;9.40;;;5.35;;
52948;SDS011;38812;50.942;3.644;2022-09-29T02:06:58;7.60;;;5.75;;
52948;SDS011;38812;50.942;3.644;2022-09-29T02:09:29;12.38;;;6.60;;
52948;SDS011;38812;50.942;3.644;2022-09-29T02:11:59;10.25;;;5.85;;
52948;SDS011;38812;50.942;3.644;2022-09-29T02:14:28;10.98;;;4.95;;
52948;SDS011;38812;50.942;3.644;2022-09-29T02:17:02;8.05;;;5.70;;
52948;SDS011;38812;50.942;3.644;2022-09-29T02:19:50;13.57;;;5.82;;
52948;SDS011;38812;50.942;3.644;2022-09-29T02:22:16;10.18;;;5.72;;
52948;SDS011;38812;50.942;3.644;2022-09-29T02:24:42;11.15;;;6.15;;
52948;SDS011;38812;50.942;3.644;2022-09-29T02:27:08;10.25;;;5.22;;
52948;SDS011;38812;50.942;3.644;2022-09-29T02:29:34;8.35;;;5.47;;
52948;SDS011;38812;50.942;3.644;2022-09-29T02:32:01;11.70;;;6.10;;
52948;SDS011;38812;50.942;3.644;2022-09-29T02:34:29;11.05;;;5.50;;
52948;SDS011;38812;50.942;3.644;2022-09-29T02:36:57;11.35;;;5.57;;
52948;SDS011;38812;50.942;3.644;2022-09-29T02:42:15;9.48;;;5.22;;
52948;SDS011;38812;50.942;3.644;2022-09-29T02:44:57;13.88;;;5.72;;
52948;SDS011;38812;50.942;3.644;2022-09-29T02:58:50;8.50;;;5.93;;
52948;SDS011;38812;50.942;3.644;2022-09-29T03:01:17;8.75;;;5.78;;
52948;SDS011;38812;50.942;3.644;2022-09-29T03:03:42;8.20;;;5.00;;
52948;SDS011;38812;50.942;3.644;2022-09-29T03:06:08;6.90;;;5.70;;
52948;SDS011;38812;50.942;3.644;2022-09-29T03:08:35;13.32;;;6.07;;
52948;SDS011;38812;50.942;3.644;2022-09-29T03:11:00;10.23;;;5.68;;
52948;SDS011;38812;50.942;3.644;2022-09-29T03:13:26;10.75;;;6.15;;
52948;SDS011;38812;50.942;3.644;2022-09-29T03:15:51;11.60;;;5.70;;
52948;SDS011;38812;50.942;3.644;2022-09-29T03:18:16;12.52;;;5.60;;
52948;SDS011;38812;50.942;3.644;2022-09-29T03:20:42;11.85;;;6.03;;
52948;SDS011;38812;50.942;3.644;2022-09-29T03:23:07;14.05;;;5.60;;
52948;SDS011;38812;50.942;3.644;2022-09-29T03:25:33;10.02;;;4.85;;
52948;SDS011;38812;50.942;3.644;2022-09-29T03:27:58;11.60;;;5.53;;
52948;SDS011;38812;50.942;3.644;2022-09-29T03:30:23;7.93;;;5.22;;
52948;SDS011;38812;50.942;3.644;2022-09-29T03:32:49;8.38;;;5.68;;
52948;SDS011;38812;50.942;3.644;2022-09-29T03:35:14;9.50;;;5.30;;
52948;SDS011;38812;50.942;3.644;2022-09-29T03:37:40;8.95;;;5.45;;
52948;SDS011;38812;50.942;3.644;2022-09-29T03:40:05;11.48;;;6.30;;
52948;SDS011;38812;50.942;3.644;2022-09-29T03:42:31;15.52;;;8.55;;
52948;SDS011;38812;50.942;3.644;2022-09-29T03:44:57;8.82;;;6.03;;
52948;SDS011;38812;50.942;3.644;2022-09-29T03:47:22;10.90;;;6.60;;
52948;SDS011;38812;50.942;3.644;2022-09-29T03:49:48;10.60;;;5.90;;
52948;SDS011;38812;50.942;3.644;2022-09-29T03:52:13;8.75;;;5.82;;
52948;SDS011;38812;50.942;3.644;2022-09-29T03:54:38;8.20;;;6.18;;
52948;SDS011;38812;50.942;3.644;2022-09-29T03:57:04;13.07;;;6.63;;
52948;SDS011;38812;50.942;3.644;2022-09-29T03:59:29;13.43;;;7.55;;
52948;SDS011;38812;50.942;3.644;2022-09-29T04:01:55;11.23;;;6.55;;
52948;SDS011;38812;50.942;3.644;2022-09-29T04:04:20;13.65;;;6.45;;
52948;SDS011;38812;50.942;3.644;2022-09-29T04:06:46;21.23;;;7.57;;
52948;SDS011;38812;50.942;3.644;2022-09-29T04:09:11;15.52;;;7.50;;
52948;SDS011;38812;50.942;3.644;2022-09-29T04:11:36;11.05;;;7.07;;
52948;SDS011;38812;50.942;3.644;2022-09-29T04:14:02;12.40;;;7.25;;
52948;SDS011;38812;50.942;3.644;2022-09-29T04:16:28;9.90;;;6.65;;
52948;SDS011;38812;50.942;3.644;2022-09-29T04:18:53;12.32;;;7.47;;
52948;SDS011;38812;50.942;3.644;2022-09-29T04:21:18;16.70;;;7.28;;
52948;SDS011;38812;50.942;3.644;2022-09-29T04:23:44;11.60;;;7.15;;
52948;SDS011;38812;50.942;3.644;2022-09-29T04:26:10;11.38;;;6.40;;
52948;SDS011;38812;50.942;3.644;2022-09-29T04:28:36;13.52;;;6.75;;
52948;SDS011;38812;50.942;3.644;2022-09-29T04:31:02;10.40;;;6.70;;
52948;SDS011;38812;50.942;3.644;2022-09-29T04:33:28;11.30;;;6.75;;
52948;SDS011;38812;50.942;3.644;2022-09-29T04:35:54;11.15;;;7.22;;
52948;SDS011;38812;50.942;3.644;2022-09-29T04:38:20;10.15;;;6.45;;
52948;SDS011;38812;50.942;3.644;2022-09-29T04:40:46;8.68;;;5.90;;
52948;SDS011;38812;50.942;3.644;2022-09-29T04:43:12;11.55;;;6.13;;
52948;SDS011;38812;50.942;3.644;2022-09-29T04:45:37;11.85;;;6.43;;
52948;SDS011;38812;50.942;3.644;2022-09-29T04:48:03;14.85;;;6.10;;
52948;SDS011;38812;50.942;3.644;2022-09-29T04:50:28;11.85;;;6.35;;
52948;SDS011;38812;50.942;3.644;2022-09-29T04:52:54;11.65;;;7.43;;
52948;SDS011;38812;50.942;3.644;2022-09-29T04:55:19;16.65;;;7.22;;
52948;SDS011;38812;50.942;3.644;2022-09-29T04:57:44;12.23;;;6.38;;
52948;SDS011;38812;50.942;3.644;2022-09-29T05:00:11;14.63;;;5.95;;
52948;SDS011;38812;50.942;3.644;2022-09-29T05:02:37;12.45;;;6.15;;
52948;SDS011;38812;50.942;3.644;2022-09-29T05:05:02;13.27;;;6.65;;
52948;SDS011;38812;50.942;3.644;2022-09-29T05:07:29;9.75;;;5.45;;
52948;SDS011;38812;50.942;3.644;2022-09-29T05:09:54;12.20;;;5.88;;
52948;SDS011;38812;50.942;3.644;2022-09-29T05:12:20;10.75;;;6.22;;
52948;SDS011;38812;50.942;3.644;2022-09-29T05:14:45;12.90;;;7.57;;
52948;SDS011;38812;50.942;3.644;2022-09-29T05:17:11;13.10;;;7.90;;
52948;SDS011;38812;50.942;3.644;2022-09-29T05:19:36;21.45;;;8.73;;
52948;SDS011;38812;50.942;3.644;2022-09-29T05:22:02;12.95;;;7.63;;
52948;SDS011;38812;50.942;3.644;2022-09-29T05:24:28;10.88;;;7.10;;
52948;SDS011;38812;50.942;3.644;2022-09-29T05:26:53;14.38;;;6.50;;
52948;SDS011;38812;50.942;3.644;2022-09-29T05:29:18;19.38;;;7.20;;
52948;SDS011;38812;50.942;3.644;2022-09-29T05:31:44;14.20;;;7.55;;
52948;SDS011;38812;50.942;3.644;2022-09-29T05:34:09;13.38;;;7.57;;
52948;SDS011;38812;50.942;3.644;2022-09-29T05:36:35;14.23;;;7.93;;
52948;SDS011;38812;50.942;3.644;2022-09-29T05:39:01;27.45;;;7.68;;
52948;SDS011;38812;50.942;3.644;2022-09-29T05:41:27;16.95;;;7.32;;
52948;SDS011;38812;50.942;3.644;2022-09-29T05:43:52;11.43;;;7.18;;
52948;SDS011;38812;50.942;3.644;2022-09-29T05:46:19;12.18;;;6.40;;
52948;SDS011;38812;50.942;3.644;2022-09-29T05:48:45;9.70;;;6.00;;
52948;SDS011;38812;50.942;3.644;2022-09-29T05:51:15;12.05;;;6.43;;
52948;SDS011;38812;50.942;3.644;2022-09-29T05:53:42;11.38;;;6.15;;
52948;SDS011;38812;50.942;3.644;2022-09-29T05:56:08;12.07;;;7.05;;
52948;SDS011;38812;50.942;3.644;2022-09-29T05:58:42;14.50;;;7.60;;
52948;SDS011;38812;50.942;3.644;2022-09-29T06:01:08;19.50;;;8.10;;
52948;SDS011;38812;50.942;3.644;2022-09-29T06:03:35;8.80;;;5.93;;
52948;SDS011;38812;50.942;3.644;2022-09-29T06:08:30;15.63;;;6.75;;
52948;SDS011;38812;50.942;3.644;2022-09-29T06:11:00;8.93;;;6.22;;
52948;SDS011;38812;50.942;3.644;2022-09-29T06:13:36;11.35;;;6.22;;
52948;SDS011;38812;50.942;3.644;2022-09-29T06:16:02;13.00;;;7.05;;
52948;SDS011;38812;50.942;3.644;2022-09-29T06:18:27;13.10;;;6.57;;
52948;SDS011;38812;50.942;3.644;2022-09-29T06:20:58;9.32;;;6.07;;
52948;SDS011;38812;50.942;3.644;2022-09-29T06:23:25;12.85;;;6.78;;
52948;SDS011;38812;50.942;3.644;2022-09-29T06:25:54;20.08;;;8.05;;
52948;SDS011;38812;50.942;3.644;2022-09-29T06:28:20;17.50;;;8.52;;
52948;SDS011;38812;50.942;3.644;2022-09-29T06:30:46;16.65;;;8.25;;
52948;SDS011;38812;50.942;3.644;2022-09-29T06:33:11;21.75;;;8.00;;
52948;SDS011;38812;50.942;3.644;2022-09-29T06:35:36;13.32;;;9.00;;
52948;SDS011;38812;50.942;3.644;2022-09-29T06:38:20;17.92;;;9.07;;
52948;SDS011;38812;50.942;3.644;2022-09-29T06:40:45;15.70;;;8.57;;
52948;SDS011;38812;50.942;3.644;2022-09-29T06:43:11;21.58;;;8.45;;
52948;SDS011;38812;50.942;3.644;2022-09-29T06:45:37;16.52;;;9.23;;
52948;SDS011;38812;50.942;3.644;2022-09-29T06:48:02;15.70;;;9.27;;
52948;SDS011;38812;50.942;3.644;2022-09-29T06:50:27;17.45;;;8.23;;
52948;SDS011;38812;50.942;3.644;2022-09-29T06:52:53;14.93;;;8.27;;
52948;SDS011;38812;50.942;3.644;2022-09-29T06:55:18;16.88;;;9.18;;
52948;SDS011;38812;50.942;3.644;2022-09-29T06:57:44;15.15;;;9.93;;
52948;SDS011;38812;50.942;3.644;2022-09-29T07:00:09;16.10;;;9.43;;
52948;SDS011;38812;50.942;3.644;2022-09-29T07:02:35;17.48;;;10.25;;
52948;SDS011;38812;50.942;3.644;2022-09-29T07:05:01;14.55;;;9.32;;
52948;SDS011;38812;50.942;3.644;2022-09-29T07:07:26;14.88;;;9.45;;
52948;SDS011;38812;50.942;3.644;2022-09-29T07:09:51;15.07;;;8.90;;
52948;SDS011;38812;50.942;3.644;2022-09-29T07:12:17;23.42;;;17.20;;
52948;SDS011;38812;50.942;3.644;2022-09-29T07:14:42;17.30;;;9.40;;
52948;SDS011;38812;50.942;3.644;2022-09-29T07:17:07;11.65;;;7.20;;
52948;SDS011;38812;50.942;3.644;2022-09-29T07:19:33;14.82;;;7.22;;
52948;SDS011;38812;50.942;3.644;2022-09-29T07:21:58;19.08;;;8.38;;
52948;SDS011;38812;50.942;3.644;2022-09-29T07:24:24;11.02;;;7.07;;
52948;SDS011;38812;50.942;3.644;2022-09-29T07:26:50;19.58;;;7.20;;
52948;SDS011;38812;50.942;3.644;2022-09-29T07:29:15;11.93;;;7.97;;
52948;SDS011;38812;50.942;3.644;2022-09-29T07:31:41;16.65;;;7.43;;
52948;SDS011;38812;50.942;3.644;2022-09-29T07:34:07;13.07;;;6.72;;
52948;SDS011;38812;50.942;3.644;2022-09-29T07:36:32;19.55;;;6.80;;
52948;SDS011;38812;50.942;3.644;2022-09-29T07:38:57;15.55;;;6.90;;
52948;SDS011;38812;50.942;3.644;2022-09-29T07:41:23;13.20;;;7.13;;
52948;SDS011;38812;50.942;3.644;2022-09-29T07:43:48;14.20;;;6.65;;
52948;SDS011;38812;50.942;3.644;2022-09-29T07:46:14;9.80;;;6.28;;
52948;SDS011;38812;50.942;3.644;2022-09-29T07:48:39;16.08;;;6.75;;
52948;SDS011;38812;50.942;3.644;2022-09-29T07:51:06;20.90;;;7.22;;
52948;SDS011;38812;50.942;3.644;2022-09-29T07:53:42;15.38;;;6.13;;
52948;SDS011;38812;50.942;3.644;2022-09-29T07:56:25;13.27;;;7.57;;
52948;SDS011;38812;50.942;3.644;2022-09-29T07:58:51;14.75;;;6.82;;
52948;SDS011;38812;50.942;3.644;2022-09-29T08:01:17;14.75;;;6.32;;
52948;SDS011;38812;50.942;3.644;2022-09-29T08:03:47;11.15;;;6.53;;
52948;SDS011;38812;50.942;3.644;2022-09-29T08:06:14;10.18;;;6.43;;
52948;SDS011;38812;50.942;3.644;2022-09-29T08:08:40;12.35;;;7.13;;
52948;SDS011;38812;50.942;3.644;2022-09-29T08:11:07;16.52;;;6.78;;
52948;SDS011;38812;50.942;3.644;2022-09-29T08:13:35;8.25;;;6.00;;
52948;SDS011;38812;50.942;3.644;2022-09-29T08:16:01;16.98;;;6.57;;
52948;SDS011;38812;50.942;3.644;2022-09-29T08:18:29;9.18;;;5.47;;
52948;SDS011;38812;50.942;3.644;2022-09-29T08:20:55;8.32;;;4.78;;
52948;SDS011;38812;50.942;3.644;2022-09-29T08:23:20;8.27;;;5.00;;
52948;SDS011;38812;50.942;3.644;2022-09-29T08:25:47;7.97;;;5.60;;
52948;SDS011;38812;50.942;3.644;2022-09-29T08:28:12;7.20;;;4.63;;
52948;SDS011;38812;50.942;3.644;2022-09-29T08:30:38;9.38;;;4.43;;
52948;SDS011;38812;50.942;3.644;2022-09-29T08:33:03;8.02;;;4.68;;
52948;SDS011;38812;50.942;3.644;2022-09-29T08:35:31;11.30;;;3.25;;
52948;SDS011;38812;50.942;3.644;2022-09-29T08:37:56;4.93;;;3.35;;
52948;SDS011;38812;50.942;3.644;2022-09-29T08:40:23;6.03;;;3.72;;
52948;SDS011;38812;50.942;3.644;2022-09-29T08:45:40;9.75;;;2.90;;
52948;SDS011;38812;50.942;3.644;2022-09-29T08:48:15;5.53;;;1.90;;
52948;SDS011;38812;50.942;3.644;2022-09-29T08:50:50;3.85;;;2.63;;
52948;SDS011;38812;50.942;3.644;2022-09-29T08:53:20;2.97;;;2.67;;
52948;SDS011;38812;50.942;3.644;2022-09-29T08:55:49;6.35;;;2.72;;
52948;SDS011;38812;50.942;3.644;2022-09-29T08:58:19;3.63;;;2.38;;
52948;SDS011;38812;50.942;3.644;2022-09-29T09:12:20;2.30;;;1.80;;
52948;SDS011;38812;50.942;3.644;2022-09-29T09:20:40;7.13;;;1.27;;
52948;SDS011;38812;50.942;3.644;2022-09-29T09:25:38;3.67;;;1.85;;
52948;SDS011;38812;50.942;3.644;2022-09-29T09:28:20;2.45;;;1.67;;
52948;SDS011;38812;50.942;3.644;2022-09-29T09:30:58;4.43;;;1.83;;
52948;SDS011;38812;50.942;3.644;2022-09-29T09:33:30;4.03;;;1.70;;
52948;SDS011;38812;50.942;3.644;2022-09-29T09:36:15;2.83;;;1.40;;
52948;SDS011;38812;50.942;3.644;2022-09-29T09:38:54;3.25;;;2.00;;
52948;SDS011;38812;50.942;3.644;2022-09-29T09:41:23;2.78;;;1.58;;
52948;SDS011;38812;50.942;3.644;2022-09-29T09:43:53;3.50;;;1.73;;
52948;SDS011;38812;50.942;3.644;2022-09-29T09:46:28;7.28;;;1.65;;
52948;SDS011;38812;50.942;3.644;2022-09-29T09:51:44;2.85;;;1.70;;
52948;SDS011;38812;50.942;3.644;2022-09-29T09:55:04;2.63;;;1.52;;
52948;SDS011;38812;50.942;3.644;2022-09-29T10:02:30;2.30;;;1.00;;
52948;SDS011;38812;50.942;3.644;2022-09-29T10:04:55;2.75;;;0.90;;
52948;SDS011;38812;50.942;3.644;2022-09-29T10:07:22;1.48;;;0.88;;
52948;SDS011;38812;50.942;3.644;2022-09-29T10:09:49;1.00;;;0.90;;
52948;SDS011;38812;50.942;3.644;2022-09-29T10:12:15;1.33;;;0.90;;
52948;SDS011;38812;50.942;3.644;2022-09-29T10:14:44;5.60;;;0.98;;
52948;SDS011;38812;50.942;3.644;2022-09-29T10:17:18;4.88;;;1.17;;
52948;SDS011;38812;50.942;3.644;2022-09-29T10:22:25;1.48;;;1.17;;
52948;SDS011;38812;50.942;3.644;2022-09-29T10:25:04;4.00;;;1.35;;
52948;SDS011;38812;50.942;3.644;2022-09-29T10:27:33;3.30;;;1.25;;
52948;SDS011;38812;50.942;3.644;2022-09-29T10:30:00;1.35;;;1.13;;
52948;SDS011;38812;50.942;3.644;2022-09-29T10:32:30;2.97;;;1.50;;
52948;SDS011;38812;50.942;3.644;2022-09-29T10:37:39;3.97;;;1.80;;
52948;SDS011;38812;50.942;3.644;2022-09-29T10:42:36;3.47;;;1.77;;
52948;SDS011;38812;50.942;3.644;2022-09-29T10:50:30;2.92;;;2.63;;
52948;SDS011;38812;50.942;3.644;2022-09-29T10:52:58;2.25;;;1.80;;
52948;SDS011;38812;50.942;3.644;2022-09-29T10:55:28;3.25;;;1.83;;
52948;SDS011;38812;50.942;3.644;2022-09-29T10:58:04;3.88;;;2.17;;
52948;SDS011;38812;50.942;3.644;2022-09-29T11:00:43;3.13;;;2.50;;
52948;SDS011;38812;50.942;3.644;2022-09-29T11:08:22;5.65;;;2.33;;
52948;SDS011;38812;50.942;3.644;2022-09-29T11:11:07;5.30;;;2.20;;
52948;SDS011;38812;50.942;3.644;2022-09-29T11:13:42;3.20;;;1.77;;
52948;SDS011;38812;50.942;3.644;2022-09-29T11:16:16;6.32;;;1.90;;
52948;SDS011;38812;50.942;3.644;2022-09-29T11:27:02;6.38;;;2.45;;
52948;SDS011;38812;50.942;3.644;2022-09-29T11:38:02;4.72;;;2.80;;
52948;SDS011;38812;50.942;3.644;2022-09-29T11:43:58;2.33;;;1.45;;
52948;SDS011;38812;50.942;3.644;2022-09-29T11:49:48;7.57;;;0.60;;
52948;SDS011;38812;50.942;3.644;2022-09-29T11:57:47;1.60;;;0.68;;
52948;SDS011;38812;50.942;3.644;2022-09-29T12:00:21;1.35;;;0.68;;
52948;SDS011;38812;50.942;3.644;2022-09-29T12:05:53;5.55;;;0.52;;
52948;SDS011;38812;50.942;3.644;2022-09-29T12:16:19;1.38;;;0.93;;
52948;SDS011;38812;50.942;3.644;2022-09-29T12:18:51;3.55;;;1.00;;
52948;SDS011;38812;50.942;3.644;2022-09-29T12:21:40;1.02;;;0.60;;
52948;SDS011;38812;50.942;3.644;2022-09-29T12:24:10;4.25;;;0.70;;
52948;SDS011;38812;50.942;3.644;2022-09-29T12:26:42;0.40;;;0.40;;
52948;SDS011;38812;50.942;3.644;2022-09-29T12:31:44;1.95;;;0.63;;
52948;SDS011;38812;50.942;3.644;2022-09-29T12:34:15;4.72;;;0.82;;
52948;SDS011;38812;50.942;3.644;2022-09-29T12:36:50;1.77;;;0.57;;
52948;SDS011;38812;50.942;3.644;2022-09-29T12:39:37;3.03;;;1.30;;
52948;SDS011;38812;50.942;3.644;2022-09-29T12:42:23;1.60;;;0.52;;
52948;SDS011;38812;50.942;3.644;2022-09-29T12:45:00;4.55;;;1.10;;
52948;SDS011;38812;50.942;3.644;2022-09-29T12:50:24;3.25;;;0.93;;
52948;SDS011;38812;50.942;3.644;2022-09-29T12:52:57;1.50;;;0.63;;
52948;SDS011;38812;50.942;3.644;2022-09-29T12:58:16;2.15;;;0.93;;
52948;SDS011;38812;50.942;3.644;2022-09-29T13:00:49;1.00;;;0.60;;
52948;SDS011;38812;50.942;3.644;2022-09-29T13:03:32;2.00;;;0.65;;
52948;SDS011;38812;50.942;3.644;2022-09-29T13:13:57;2.78;;;0.70;;
52948;SDS011;38812;50.942;3.644;2022-09-29T13:22:31;2.05;;;0.80;;
52948;SDS011;38812;50.942;3.644;2022-09-29T13:28:01;3.58;;;0.90;;
52948;SDS011;38812;50.942;3.644;2022-09-29T13:30:34;1.60;;;0.80;;
52948;SDS011;38812;50.942;3.644;2022-09-29T13:33:09;2.70;;;1.55;;
52948;SDS011;38812;50.942;3.644;2022-09-29T13:35:40;1.23;;;0.55;;
52948;SDS011;38812;50.942;3.644;2022-09-29T13:38:31;2.63;;;1.10;;
52948;SDS011;38812;50.942;3.644;2022-09-29T13:43:38;1.58;;;0.75;;
52948;SDS011;38812;50.942;3.644;2022-09-29T13:51:47;2.70;;;0.73;;
52948;SDS011;38812;50.942;3.644;2022-09-29T13:57:06;1.48;;;0.88;;
52948;SDS011;38812;50.942;3.644;2022-09-29T13:59:42;0.95;;;0.80;;
52948;SDS011;38812;50.942;3.644;2022-09-29T14:02:24;0.70;;;0.70;;
52948;SDS011;38812;50.942;3.644;2022-09-29T14:04:57;1.00;;;0.90;;
52948;SDS011;38812;50.942;3.644;2022-09-29T14:07:36;1.02;;;0.68;;
52948;SDS011;38812;50.942;3.644;2022-09-29T14:10:19;3.55;;;0.77;;
52948;SDS011;38812;50.942;3.644;2022-09-29T14:12:59;0.60;;;0.60;;
52948;SDS011;38812;50.942;3.644;2022-09-29T14:15:25;0.63;;;0.55;;
52948;SDS011;38812;50.942;3.644;2022-09-29T14:17:58;0.77;;;0.70;;
52948;SDS011;38812;50.942;3.644;2022-09-29T14:20:32;1.38;;;0.70;;
52948;SDS011;38812;50.942;3.644;2022-09-29T14:23:00;0.98;;;0.52;;
52948;SDS011;38812;50.942;3.644;2022-09-29T14:28:15;1.20;;;0.40;;
52948;SDS011;38812;50.942;3.644;2022-09-29T14:30:49;1.20;;;0.40;;
52948;SDS011;38812;50.942;3.644;2022-09-29T14:33:18;0.50;;;0.40;;
52948;SDS011;38812;50.942;3.644;2022-09-29T14:36:00;0.97;;;0.40;;
52948;SDS011;38812;50.942;3.644;2022-09-29T14:38:29;1.42;;;0.50;;
52948;SDS011;38812;50.942;3.644;2022-09-29T14:40:57;4.20;;;1.17;;
52948;SDS011;38812;50.942;3.644;2022-09-29T14:43:34;2.25;;;1.20;;
52948;SDS011;38812;50.942;3.644;2022-09-29T14:58:03;1.95;;;0.70;;
52948;SDS011;38812;50.942;3.644;2022-09-29T15:03:07;1.63;;;1.05;;
52948;SDS011;38812;50.942;3.644;2022-09-29T15:05:33;3.15;;;0.80;;
52948;SDS011;38812;50.942;3.644;2022-09-29T15:08:00;1.05;;;0.95;;
52948;SDS011;38812;50.942;3.644;2022-09-29T15:15:39;2.40;;;0.68;;
52948;SDS011;38812;50.942;3.644;2022-09-29T15:25:55;0.40;;;0.30;;
52948;SDS011;38812;50.942;3.644;2022-09-29T15:31:04;0.77;;;0.30;;
52948;SDS011;38812;50.942;3.644;2022-09-29T15:33:35;1.42;;;0.50;;
52948;SDS011;38812;50.942;3.644;2022-09-29T15:38:51;4.60;;;1.45;;
52948;SDS011;38812;50.942;3.644;2022-09-29T15:41:19;1.83;;;1.15;;
52948;SDS011;38812;50.942;3.644;2022-09-29T15:46:38;2.83;;;1.10;;
52948;SDS011;38812;50.942;3.644;2022-09-29T15:49:15;19.05;;;2.78;;
52948;SDS011;38812;50.942;3.644;2022-09-29T15:52:09;4.20;;;2.15;;
52948;SDS011;38812;50.942;3.644;2022-09-29T15:54:36;1.88;;;1.20;;
52948;SDS011;38812;50.942;3.644;2022-09-29T15:57:05;1.20;;;1.10;;
52948;SDS011;38812;50.942;3.644;2022-09-29T15:59:53;2.50;;;1.60;;
52948;SDS011;38812;50.942;3.644;2022-09-29T16:02:30;2.50;;;1.35;;
52948;SDS011;38812;50.942;3.644;2022-09-29T16:07:31;4.70;;;1.70;;
52948;SDS011;38812;50.942;3.644;2022-09-29T16:10:00;3.28;;;1.63;;
52948;SDS011;38812;50.942;3.644;2022-09-29T16:12:34;2.88;;;1.88;;
52948;SDS011;38812;50.942;3.644;2022-09-29T16:15:03;13.55;;;5.47;;
52948;SDS011;38812;50.942;3.644;2022-09-29T16:17:30;11.07;;;4.15;;
52948;SDS011;38812;50.942;3.644;2022-09-29T16:19:56;13.88;;;4.50;;
52948;SDS011;38812;50.942;3.644;2022-09-29T16:22:24;11.02;;;4.95;;
52948;SDS011;38812;50.942;3.644;2022-09-29T16:25:38;10.23;;;4.63;;
52948;SDS011;38812;50.942;3.644;2022-09-29T16:27:55;10.48;;;4.95;;
52948;SDS011;38812;50.942;3.644;2022-09-29T16:30:23;7.70;;;5.40;;
52948;SDS011;38812;50.942;3.644;2022-09-29T16:32:56;8.35;;;4.60;;
52948;SDS011;38812;50.942;3.644;2022-09-29T16:35:38;7.93;;;4.18;;
52948;SDS011;38812;50.942;3.644;2022-09-29T16:38:16;5.97;;;3.80;;
52948;SDS011;38812;50.942;3.644;2022-09-29T16:40:43;9.20;;;2.95;;
52948;SDS011;38812;50.942;3.644;2022-09-29T16:43:20;4.13;;;3.35;;
52948;SDS011;38812;50.942;3.644;2022-09-29T16:45:50;6.32;;;3.50;;
52948;SDS011;38812;50.942;3.644;2022-09-29T16:48:20;5.10;;;3.13;;
52948;SDS011;38812;50.942;3.644;2022-09-29T16:50:48;10.25;;;3.50;;
52948;SDS011;38812;50.942;3.644;2022-09-29T16:53:22;9.50;;;4.70;;
52948;SDS011;38812;50.942;3.644;2022-09-29T16:55:54;10.40;;;5.85;;
52948;SDS011;38812;50.942;3.644;2022-09-29T16:58:24;10.13;;;5.93;;
52948;SDS011;38812;50.942;3.644;2022-09-29T17:00:51;13.57;;;6.88;;
52948;SDS011;38812;50.942;3.644;2022-09-29T17:03:16;15.13;;;9.20;;
52948;SDS011;38812;50.942;3.644;2022-09-29T17:05:42;16.40;;;11.93;;
52948;SDS011;38812;50.942;3.644;2022-09-29T17:08:18;17.95;;;12.52;;
52948;SDS011;38812;50.942;3.644;2022-09-29T17:10:50;14.73;;;9.40;;
52948;SDS011;38812;50.942;3.644;2022-09-29T17:13:17;11.93;;;8.50;;
52948;SDS011;38812;50.942;3.644;2022-09-29T17:15:44;10.55;;;7.35;;
52948;SDS011;38812;50.942;3.644;2022-09-29T17:18:13;12.18;;;5.55;;
52948;SDS011;38812;50.942;3.644;2022-09-29T17:20:40;15.75;;;7.78;;
52948;SDS011;38812;50.942;3.644;2022-09-29T17:23:06;13.00;;;8.18;;
52948;SDS011;38812;50.942;3.644;2022-09-29T17:25:33;11.10;;;7.15;;
52948;SDS011;38812;50.942;3.644;2022-09-29T17:27:59;23.50;;;15.65;;
52948;SDS011;38812;50.942;3.644;2022-09-29T17:30:39;32.58;;;18.88;;
52948;SDS011;38812;50.942;3.644;2022-09-29T17:33:09;26.35;;;17.98;;
52948;SDS011;38812;50.942;3.644;2022-09-29T17:35:37;13.13;;;8.27;;
52948;SDS011;38812;50.942;3.644;2022-09-29T17:38:04;8.80;;;4.13;;
52948;SDS011;38812;50.942;3.644;2022-09-29T17:40:36;7.63;;;4.35;;
52948;SDS011;38812;50.942;3.644;2022-09-29T17:43:26;7.63;;;4.90;;
52948;SDS011;38812;50.942;3.644;2022-09-29T17:45:53;9.63;;;4.30;;
52948;SDS011;38812;50.942;3.644;2022-09-29T17:48:19;7.90;;;4.55;;
52948;SDS011;38812;50.942;3.644;2022-09-29T17:50:45;5.40;;;4.10;;
52948;SDS011;38812;50.942;3.644;2022-09-29T17:53:11;8.32;;;5.07;;
52948;SDS011;38812;50.942;3.644;2022-09-29T17:55:39;6.00;;;4.85;;
52948;SDS011;38812;50.942;3.644;2022-09-29T17:58:05;7.05;;;4.82;;
52948;SDS011;38812;50.942;3.644;2022-09-29T18:00:32;8.43;;;5.65;;
52948;SDS011;38812;50.942;3.644;2022-09-29T18:03:02;7.82;;;5.43;;
52948;SDS011;38812;50.942;3.644;2022-09-29T18:05:34;14.90;;;8.73;;
52948;SDS011;38812;50.942;3.644;2022-09-29T18:08:01;20.73;;;10.55;;
52948;SDS011;38812;50.942;3.644;2022-09-29T18:10:40;21.30;;;10.15;;
52948;SDS011;38812;50.942;3.644;2022-09-29T18:13:07;21.73;;;10.80;;
52948;SDS011;38812;50.942;3.644;2022-09-29T18:15:33;24.88;;;11.35;;
52948;SDS011;38812;50.942;3.644;2022-09-29T18:18:01;11.38;;;6.97;;